Oldtown, Idaho
Current Conditions -  °F | °C
As of 12:55 PM on Thursday 20 Nov 2014 (Local Time) from KSZT Reporting Station
Light Snow Light Snow  
Wind Chill: 30°   Ceiling: 1200
Heat Index: 30°   Visibility: 3mi
Dew Point: 30°   Wind: 3mph
Humidity: 100%   Direction: 160°SSE
Pressure: 30.04"   Gusts: NA
Location:  48.18°N, 117.04°W
Report Text: KSZT 202055Z AUTO 16003KT 3SM -SN BKN012 OVC019 M01/M01 A3004 RMK AO2
Loading
Personal Weather Stations






























Interactive Weather Map New forecast layout! Learn more

10-Day Weather Forecast

Advertisements
Track Severe Weather on mobile